Time;durP1;ratioP1;P1;durP2;ratioP2;P2;SDS_P1;SDS_P2;PMS_P1;PMS_P2;Temp;Humidity;BMP_temperature;BMP_pressure;BME280_temperature;BME280_humidity;BME280_pressure;Samples;Min_cycle;Max_cycle;Signal;HPM_P1;HPM_P2
2022/06/09 00:00:31;;;;;;;4.80;4.60;;;;;;;13.07;100.00;100424.56;6045464;23;20085;-70
2022/06/09 00:03:03;;;;;;;6.10;5.80;;;;;;;13.02;100.00;100429.28;6032045;23;20029;-72
2022/06/09 00:05:31;;;;;;;5.32;5.03;;;;;;;12.86;100.00;100411.00;6052962;23;20025;-71
2022/06/09 00:08:02;;;;;;;6.65;6.35;;;;;;;12.94;100.00;100429.78;6009877;23;20015;-72
2022/06/09 00:10:33;;;;;;;4.80;4.60;;;;;;;12.93;100.00;100435.16;6051835;23;20633;-73
2022/06/09 00:12:59;;;;;;;6.38;6.07;;;;;;;12.64;100.00;100387.88;6025921;23;20034;-72
2022/06/09 00:15:27;;;;;;;5.00;4.80;;;;;;;12.85;100.00;100433.03;6063120;23;20034;-72
2022/06/09 00:17:54;;;;;;;6.00;5.70;;;;;;;12.80;100.00;100435.13;6019949;23;20027;-73
2022/06/09 00:20:21;;;;;;;4.60;4.40;;;;;;;12.73;100.00;100439.94;6054522;23;20034;-72
2022/06/09 00:22:48;;;;;;;5.72;5.50;;;;;;;12.70;100.00;100437.50;6024969;23;20370;-74
2022/06/09 00:25:14;;;;;;;4.80;4.60;;;;;;;12.64;100.00;100451.06;6052719;23;20014;-74
2022/06/09 00:27:41;;;;;;;5.03;4.80;;;;;;;12.62;100.00;100446.84;6002170;23;20037;-74
2022/06/09 00:30:10;;;;;;;4.90;4.70;;;;;;;12.36;100.00;100415.16;6033375;23;20248;-73
2022/06/09 00:32:37;;;;;;;4.60;4.40;;;;;;;12.46;100.00;100447.84;6033472;23;20079;-71
2022/06/09 00:35:04;;;;;;;4.90;4.70;;;;;;;12.21;100.00;100419.63;6026878;23;20456;-69
2022/06/09 00:37:30;;;;;;;4.55;4.35;;;;;;;12.29;100.00;100442.81;6056996;23;20036;-69
2022/06/09 00:39:59;;;;;;;4.90;4.70;;;;;;;12.11;100.00;100422.00;6030379;23;20055;-67
2022/06/09 00:42:26;;;;;;;4.93;4.72;;;;;;;12.12;100.00;100436.81;6026555;23;20105;-70
2022/06/09 00:44:52;;;;;;;6.38;6.07;;;;;;;12.28;100.00;100468.25;6021869;23;20531;-69
2022/06/09 00:47:23;;;;;;;5.10;4.90;;;;;;;12.25;100.00;100462.34;6027039;23;20041;-67
2022/06/09 00:50:04;;;;;;;6.07;5.78;;;;;;;12.22;100.00;100470.44;6053628;23;20505;-68
2022/06/09 00:52:39;;;;;;;5.40;5.20;;;;;;;12.15;100.00;100459.47;6020683;23;20078;-70
2022/06/09 00:55:11;;;;;;;4.80;4.60;;;;;;;12.04;100.00;100446.13;6050462;23;20022;-68
2022/06/09 00:57:45;;;;;;;4.60;4.40;;;;;;;11.92;100.00;100434.59;6027186;23;20067;-70
2022/06/09 01:00:17;;;;;;;4.70;4.50;;;;;;;12.11;100.00;100471.13;6011018;23;20090;-69
2022/06/09 01:02:45;;;;;;;4.75;4.55;;;;;;;12.07;100.00;100472.25;6046927;23;20060;-69
2022/06/09 01:05:15;;;;;;;5.25;5.05;;;;;;;12.01;100.00;100476.13;6060693;23;20030;-69
2022/06/09 01:07:45;;;;;;;4.70;4.50;;;;;;;11.97;100.00;100471.97;6029572;23;20054;-67
2022/06/09 01:10:12;;;;;;;4.70;4.50;;;;;;;11.74;100.00;100447.06;6056959;23;20089;-68
2022/06/09 01:12:42;;;;;;;4.68;4.47;;;;;;;11.89;100.00;100484.75;6026371;23;20071;-67
2022/06/09 01:15:21;;;;;;;4.80;4.60;;;;;;;11.95;100.00;100489.66;6046805;23;20124;-68
2022/06/09 01:18:10;;;;;;;5.80;5.55;;;;;;;11.85;100.00;100465.66;6023978;23;20066;-68
2022/06/09 01:20:51;;;;;;;5.00;4.80;;;;;;;12.08;100.00;100501.09;6057464;23;20018;-68
2022/06/09 01:23:39;;;;;;;4.68;4.47;;;;;;;12.14;100.00;100497.22;6020591;23;20027;-67
2022/06/09 01:26:36;;;;;;;5.00;4.80;;;;;;;12.25;100.00;100496.56;6049686;23;20025;-68
2022/06/09 01:29:30;;;;;;;5.13;4.93;;;;;;;12.33;100.00;100500.41;6032141;23;20264;-67
2022/06/09 01:32:19;;;;;;;6.45;6.15;;;;;;;12.24;100.00;100468.56;6046475;23;20186;-68
2022/06/09 01:35:07;;;;;;;6.20;5.82;;;;;;;12.49;100.00;100492.41;6014817;23;20865;-68
2022/06/09 01:37:42;;;;;;;4.50;4.30;;;;;;;12.58;100.00;100498.84;6055492;23;20111;-70
2022/06/09 01:40:12;;;;;;;4.85;4.65;;;;;;;12.47;100.00;100472.34;6019688;23;20021;-68
2022/06/09 01:42:41;;;;;;;4.93;4.72;;;;;;;12.67;100.00;100502.69;6049113;23;20010;-67
2022/06/09 01:45:19;;;;;;;4.70;4.50;;;;;;;12.70;100.00;100502.50;6025446;23;20032;-67
2022/06/09 01:48:00;;;;;;;6.35;6.05;;;;;;;12.50;100.00;100466.91;6048242;23;20474;-67
2022/06/09 01:50:48;;;;;;;4.68;4.47;;;;;;;12.36;100.00;100463.34;6021842;23;20573;-68
2022/06/09 01:53:34;;;;;;;4.78;4.57;;;;;;;12.37;100.00;100466.88;6053852;23;20018;-68
2022/06/09 01:56:14;;;;;;;5.35;5.15;;;;;;;12.56;100.00;100498.09;6019479;23;20014;-70
2022/06/09 01:58:46;;;;;;;4.65;4.45;;;;;;;12.54;100.00;100508.72;6052609;23;20022;-74
2022/06/09 02:01:16;;;;;;;4.75;4.55;;;;;;;12.61;100.00;100506.56;6025478;23;20064;-72
2022/06/09 02:03:47;;;;;;;4.90;4.70;;;;;;;12.59;100.00;100511.09;6047890;23;20567;-73
2022/06/09 02:06:14;;;;;;;4.80;4.60;;;;;;;12.56;100.00;100516.53;6001474;23;20019;-71
2022/06/09 02:08:42;;;;;;;4.80;4.60;;;;;;;12.55;100.00;100510.44;6049026;23;20093;-75
2022/06/09 02:11:11;;;;;;;4.55;4.35;;;;;;;12.46;100.00;100491.75;6021897;23;20027;-68
2022/06/09 02:13:46;;;;;;;4.57;4.38;;;;;;;12.59;100.00;100513.72;6049322;23;20153;-68
2022/06/09 02:16:16;;;;;;;4.80;4.60;;;;;;;12.60;100.00;100515.41;6020861;23;20011;-68
2022/06/09 02:18:47;;;;;;;4.63;4.43;;;;;;;12.48;100.00;100487.22;6025529;23;20421;-68
2022/06/09 02:21:34;;;;;;;4.90;4.70;;;;;;;12.62;100.00;100516.13;6025351;23;20083;-68
2022/06/09 02:24:01;;;;;;;5.68;5.47;;;;;;;12.44;100.00;100491.00;6047058;23;20404;-67
2022/06/09 02:26:27;;;;;;;4.90;4.70;;;;;;;12.49;100.00;100508.19;6045894;23;20475;-68
2022/06/09 02:28:54;;;;;;;6.20;5.90;;;;;;;12.57;100.00;100515.59;6049609;23;20029;-68
2022/06/09 02:31:22;;;;;;;5.00;4.80;;;;;;;12.60;100.00;100517.19;6027304;23;20400;-67
2022/06/09 02:33:50;;;;;;;6.38;6.07;;;;;;;12.65;100.00;100529.13;6044295;23;20034;-70
2022/06/09 02:36:17;;;;;;;4.63;4.43;;;;;;;12.64;100.00;100529.22;6026080;23;20262;-74
2022/06/09 02:38:45;;;;;;;4.75;4.55;;;;;;;12.49;100.00;100515.25;6053323;23;20030;-74
2022/06/09 02:41:12;;;;;;;4.80;4.60;;;;;;;12.65;100.00;100534.41;6017754;23;20015;-74
2022/06/09 02:43:40;;;;;;;4.80;4.60;;;;;;;12.42;100.00;100498.13;6056362;23;20018;-71
2022/06/09 02:46:07;;;;;;;4.90;4.70;;;;;;;12.66;100.00;100543.97;6026522;23;20341;-73
2022/06/09 02:48:34;;;;;;;4.70;4.50;;;;;;;12.66;100.00;100540.50;6052310;23;20073;-73
2022/06/09 02:51:31;;;;;;;5.90;5.63;;;;;;;12.64;100.00;100535.31;6049136;23;20014;-73
2022/06/09 02:54:01;;;;;;;6.05;5.75;;;;;;;12.61;100.00;100540.78;6012145;23;20268;-72
2022/06/09 02:56:28;;;;;;;4.78;4.57;;;;;;;12.60;100.00;100543.50;6028167;23;20639;-72
2022/06/09 02:58:56;;;;;;;5.90;5.63;;;;;;;12.61;100.00;100547.81;6021041;23;20503;-67
2022/06/09 03:01:27;;;;;;;4.93;4.72;;;;;;;12.61;100.00;100540.78;6047786;23;20351;-67
2022/06/09 03:03:53;;;;;;;6.40;6.10;;;;;;;12.61;100.00;100545.19;6037360;23;20072;-67
2022/06/09 03:06:20;;;;;;;4.78;4.57;;;;;;;12.43;100.00;100521.75;6049675;23;20417;-70
2022/06/09 03:08:47;;;;;;;6.40;6.10;;;;;;;12.62;100.00;100539.00;6018576;23;20027;-65
2022/06/09 03:11:14;;;;;;;4.80;4.60;;;;;;;11.80;100.00;100406.41;6053988;23;20456;-73
2022/06/09 03:13:42;;;;;;;5.00;4.80;;;;;;;12.57;100.00;100541.94;6046902;23;20458;-74
2022/06/09 03:16:10;;;;;;;4.70;4.50;;;;;;;12.46;100.00;100533.84;6026706;23;20870;-72
2022/06/09 03:18:37;;;;;;;4.80;4.60;;;;;;;12.60;100.00;100549.63;6021070;23;20022;-72
2022/06/09 03:21:04;;;;;;;5.20;5.00;;;;;;;12.61;100.00;100561.84;6024733;23;20018;-72
2022/06/09 03:23:31;;;;;;;4.82;4.63;;;;;;;12.60;100.00;100573.31;6025226;23;20034;-71
2022/06/09 03:25:58;;;;;;;6.75;6.45;;;;;;;12.60;100.00;100567.22;6048160;23;20045;-73
2022/06/09 03:28:25;;;;;;;4.72;4.53;;;;;;;12.58;100.00;100576.03;6033239;23;20052;-71
2022/06/09 03:30:52;;;;;;;6.00;5.70;;;;;;;12.40;100.00;100547.41;6048728;23;20052;-73
2022/06/09 03:33:19;;;;;;;4.88;4.68;;;;;;;12.47;100.00;100559.22;6040320;23;20025;-73
2022/06/09 03:35:45;;;;;;;5.18;4.97;;;;;;;12.57;100.00;100584.06;6008221;23;20025;-72
2022/06/09 03:38:11;;;;;;;5.20;5.00;;;;;;;12.42;100.00;100556.03;5990822;23;20027;-74
2022/06/09 03:40:38;;;;;;;4.45;4.25;;;;;;;12.59;100.00;100590.06;6017478;23;20030;-71
2022/06/09 03:43:06;;;;;;;5.28;5.07;;;;;;;12.64;100.00;100582.72;5990089;23;20023;-72
2022/06/09 03:45:34;;;;;;;4.50;4.30;;;;;;;12.68;100.00;100586.00;6030504;23;20117;-72
2022/06/09 03:48:02;;;;;;;7.07;6.68;;;;;;;12.74;100.00;100598.78;6017488;23;20467;-73
2022/06/09 03:50:31;;;;;;;5.10;4.90;;;;;;;12.80;100.00;100593.13;5999772;23;20015;-68
2022/06/09 03:52:57;;;;;;;6.00;5.70;;;;;;;12.83;100.00;100597.34;5993476;23;20054;-72
2022/06/09 03:55:24;;;;;;;5.30;5.00;;;;;;;12.84;100.00;100599.88;6020629;23;20101;-71
2022/06/09 03:57:51;;;;;;;6.40;6.10;;;;;;;12.88;100.00;100601.38;6012840;23;20350;-72
2022/06/09 04:00:24;;;;;;;4.75;4.55;;;;;;;12.93;100.00;100614.28;6001060;23;20063;-73
2022/06/09 04:02:50;;;;;;;;;;;;;;;12.96;100.00;100612.28;6029440;23;20044;-67
2022/06/09 04:05:17;;;;;;;4.50;4.30;;;;;;;13.04;100.00;100622.31;5996658;23;20021;-68
2022/06/09 04:07:44;;;;;;;4.95;4.75;;;;;;;13.08;100.00;100626.47;6013141;23;20212;-67
2022/06/09 04:10:21;;;;;;;4.90;4.70;;;;;;;13.14;100.00;100633.13;5991893;23;20383;-69
2022/06/09 04:12:48;;;;;;;5.55;5.35;;;;;;;13.11;100.00;100636.81;6018691;23;20138;-72
2022/06/09 04:15:16;;;;;;;5.97;5.57;;;;;;;13.07;100.00;100635.31;5990860;23;20079;-67
2022/06/09 04:17:44;;;;;;;4.70;4.50;;;;;;;12.95;100.00;100613.22;6023646;23;20022;-73
2022/06/09 04:20:12;;;;;;;4.97;4.78;;;;;;;13.20;100.00;100658.25;5968282;23;20016;-72
2022/06/09 04:22:38;;;;;;;6.03;5.60;;;;;;;13.08;100.00;100631.72;6018447;23;20027;-71
2022/06/09 04:25:11;;;;;;;4.70;4.50;;;;;;;13.17;100.00;100641.69;6017990;23;20046;-72
2022/06/09 04:27:37;;;;;;;4.90;4.70;;;;;;;13.17;100.00;100638.22;5992173;23;20296;-69
2022/06/09 04:30:05;;;;;;;5.20;5.00;;;;;;;13.11;100.00;100628.91;5989351;23;20476;-73
2022/06/09 04:32:32;;;;;;;4.90;4.70;;;;;;;13.14;100.00;100618.16;6012840;23;20488;-69
2022/06/09 04:34:59;;;;;;;5.57;5.38;;;;;;;13.27;100.00;100643.72;6008019;23;20444;-68
2022/06/09 04:37:59;;;;;;;5.18;4.97;;;;;;;13.28;100.00;100645.44;6053893;23;20042;-68
2022/06/09 04:40:12;;;;;;;5.00;4.80;;;;;;;12.70;100.00;100542.81;6019540;23;20022;-67
2022/06/09 04:42:39;;;;;;;5.00;4.80;;;;;;;13.21;100.00;100612.50;6050796;23;20030;-68
2022/06/09 04:45:06;;;;;;;5.10;4.80;;;;;;;13.29;100.00;100623.38;6024877;23;20157;-68
2022/06/09 04:47:32;;;;;;;4.80;4.60;;;;;;;13.49;100.00;100633.53;6052480;23;20455;-72
2022/06/09 04:49:58;;;;;;;6.10;5.80;;;;;;;13.69;100.00;100655.09;6051836;23;20319;-73
2022/06/09 04:52:25;;;;;;;4.93;4.72;;;;;;;13.54;100.00;100620.88;6037009;23;20030;-73
2022/06/09 04:54:51;;;;;;;6.30;6.00;;;;;;;13.83;100.00;100655.03;6061217;23;20288;-68
2022/06/09 04:57:18;;;;;;;4.90;4.70;;;;;;;13.85;100.00;100663.69;6026841;23;20179;-67
2022/06/09 04:59:44;;;;;;;5.15;4.95;;;;;;;13.58;100.00;100632.06;6047280;23;20454;-68
2022/06/09 05:02:11;;;;;;;5.30;5.10;;;;;;;13.84;100.00;100672.53;6017184;23;20365;-68
2022/06/09 05:04:37;;;;;;;4.82;4.63;;;;;;;13.78;100.00;100665.03;6055701;23;20030;-68
2022/06/09 05:07:03;;;;;;;5.07;4.88;;;;;;;13.75;100.00;100650.28;6028549;23;20019;-73
2022/06/09 05:09:30;;;;;;;5.00;4.80;;;;;;;13.96;100.00;100682.28;6056577;23;20090;-72
2022/06/09 05:11:56;;;;;;;6.55;6.25;;;;;;;13.92;100.00;100667.59;6032975;23;20182;-73
2022/06/09 05:14:23;;;;;;;5.18;4.97;;;;;;;14.03;100.00;100681.88;6049935;23;20014;-72
2022/06/09 05:16:49;;;;;;;6.38;6.07;;;;;;;14.04;100.00;100686.22;6022043;23;20132;-70
2022/06/09 05:19:16;;;;;;;5.20;5.00;;;;;;;13.92;100.00;100653.56;6022120;23;20023;-73
2022/06/09 05:21:42;;;;;;;5.10;4.90;;;;;;;13.84;100.00;100663.78;6029547;23;20031;-67
2022/06/09 05:24:11;;;;;;;5.65;5.38;;;;;;;13.83;100.00;100651.53;6037143;23;20022;-67
2022/06/09 05:26:38;;;;;;;5.93;5.53;;;;;;;14.11;100.00;100671.63;6031758;23;20034;-67
2022/06/09 05:29:04;;;;;;;6.45;6.15;;;;;;;14.14;100.00;100671.44;6046669;23;20015;-67
2022/06/09 05:31:30;;;;;;;5.13;4.93;;;;;;;14.42;100.00;100695.97;6025064;23;20284;-68
2022/06/09 05:33:57;;;;;;;6.88;6.57;;;;;;;14.21;100.00;100688.53;6039774;23;20214;-68
2022/06/09 05:36:23;;;;;;;5.10;4.90;;;;;;;14.38;100.00;100684.78;6034053;23;20019;-71
2022/06/09 05:47:04;;;;;;;5.68;5.43;;;;;;;15.07;100.00;100718.78;6057992;23;20048;-67
2022/06/09 05:49:31;;;;;;;4.90;4.70;;;;;;;15.11;100.00;100723.75;6029143;23;20030;-71
2022/06/09 05:51:57;;;;;;;6.82;6.53;;;;;;;15.12;100.00;100730.72;6046380;23;20122;-71
2022/06/09 05:54:24;;;;;;;5.30;5.10;;;;;;;15.20;100.00;100737.28;6054396;23;20451;-72
2022/06/09 05:56:50;;;;;;;6.60;6.30;;;;;;;15.16;100.00;100734.84;6020945;23;20102;-71
2022/06/09 05:59:17;;;;;;;5.13;4.88;;;;;;;15.35;100.00;100739.66;6058322;23;20118;-72
2022/06/09 06:01:43;;;;;;;5.47;5.25;;;;;;;15.39;100.00;100737.63;6044134;23;20105;-73
2022/06/09 06:04:11;;;;;;;5.15;4.95;;;;;;;15.28;100.00;100748.16;6018171;23;20018;-72
2022/06/09 06:06:37;;;;;;;5.47;5.18;;;;;;;15.10;100.00;100740.56;6055219;23;20042;-73
2022/06/09 06:09:17;;;;;;;5.43;5.20;;;;;;;14.95;100.00;100739.84;6021770;23;20081;-68
2022/06/09 06:11:47;;;;;;;5.78;5.53;;;;;;;15.07;100.00;100750.50;6026839;23;20029;-75
2022/06/09 06:14:15;;;;;;;5.20;5.00;;;;;;;14.09;100.00;100608.44;6021811;23;20029;-72
2022/06/09 06:16:41;;;;;;;5.63;4.93;;;;;;;15.01;100.00;100758.84;6028961;23;20097;-74
2022/06/09 06:19:13;;;;;;;5.20;5.00;;;;;;;14.82;100.00;100739.00;6046133;23;20152;-72
2022/06/09 06:21:41;;;;;;;5.20;5.00;;;;;;;14.70;100.00;100732.75;6024303;23;20035;-73
2022/06/09 06:24:09;;;;;;;5.10;4.90;;;;;;;14.98;100.00;100767.00;6049614;23;20014;-73
2022/06/09 06:26:35;;;;;;;6.43;6.13;;;;;;;15.22;100.00;100772.38;6026592;23;20098;-67
2022/06/09 06:29:03;;;;;;;6.65;6.35;;;;;;;15.27;100.00;100775.53;6054843;23;20424;-71
2022/06/09 06:31:30;;;;;;;5.53;5.22;;;;;;;15.32;100.00;100776.91;6030086;23;20034;-67
2022/06/09 06:33:58;;;;;;;6.97;6.65;;;;;;;15.40;100.00;100778.16;6046026;23;20097;-68
2022/06/09 06:36:24;;;;;;;5.80;5.50;;;;;;;15.52;100.00;100787.88;6019481;23;20044;-72
2022/06/09 06:38:51;;;;;;;6.50;6.20;;;;;;;15.31;100.00;100747.91;6056535;23;20026;-71
2022/06/09 06:41:18;;;;;;;5.45;5.20;;;;;;;15.33;100.00;100788.31;6018580;23;20027;-71
2022/06/09 06:43:47;;;;;;;5.57;5.32;;;;;;;15.23;100.00;100785.47;6051600;23;20054;-68
2022/06/09 06:46:15;;;;;;;5.20;5.00;;;;;;;15.47;100.00;100798.75;6050826;23;20030;-72
2022/06/09 06:48:42;;;;;;;5.13;4.93;;;;;;;15.77;100.00;100812.56;6020960;23;20399;-68
2022/06/09 06:51:09;;;;;;;6.07;5.80;;;;;;;15.71;100.00;100761.75;6025820;23;20106;-72
2022/06/09 06:53:36;;;;;;;5.85;5.55;;;;;;;16.26;100.00;100799.25;6020946;23;20326;-69
2022/06/09 06:56:03;;;;;;;6.05;5.75;;;;;;;16.58;100.00;100801.28;6026354;23;20027;-68
2022/06/09 06:58:30;;;;;;;5.53;5.30;;;;;;;16.48;96.53;100782.59;6045471;23;20022;-68
2022/06/09 07:01:00;;;;;;;7.20;6.80;;;;;;;16.41;96.13;100781.34;6012228;23;20015;-72
2022/06/09 07:03:29;;;;;;;5.70;5.30;;;;;;;16.21;98.17;100804.03;6047945;23;20034;-71
2022/06/09 07:06:00;;;;;;;6.72;6.43;;;;;;;15.08;97.72;100657.03;6050033;23;20014;-71
2022/06/09 07:08:27;;;;;;;5.90;5.60;;;;;;;15.92;100.00;100822.06;6024905;23;20022;-68
2022/06/09 07:10:55;;;;;;;6.95;6.65;;;;;;;16.14;100.00;100797.50;6044478;23;20052;-68
2022/06/09 07:13:22;;;;;;;5.90;5.60;;;;;;;16.09;98.28;100797.00;6025736;23;20275;-68
2022/06/09 07:15:50;;;;;;;6.32;6.03;;;;;;;15.50;99.05;100670.75;6022621;23;20172;-68
2022/06/09 07:18:19;;;;;;;5.55;5.30;;;;;;;16.51;97.61;100840.63;6020315;23;20022;-68
2022/06/09 07:20:46;;;;;;;6.03;5.72;;;;;;;16.49;97.83;100845.19;6051362;23;20562;-69
2022/06/09 07:23:12;;;;;;;5.82;5.53;;;;;;;16.45;98.19;100845.53;5993703;23;20039;-68
2022/06/09 07:25:39;;;;;;;5.68;5.38;;;;;;;16.07;98.13;100825.38;6028969;23;20073;-68
2022/06/09 07:28:06;;;;;;;5.93;5.63;;;;;;;15.94;97.57;100860.69;6020637;23;20023;-74
2022/06/09 07:30:33;;;;;;;5.40;5.20;;;;;;;15.71;100.00;100835.00;6051273;23;20495;-73
2022/06/09 07:32:59;;;;;;;7.45;7.05;;;;;;;16.02;100.00;100860.13;6052967;23;20011;-71
2022/06/09 07:35:29;;;;;;;6.25;5.85;;;;;;;15.97;100.00;100864.06;6036801;23;20779;-68
2022/06/09 07:37:56;;;;;;;7.00;6.60;;;;;;;16.06;100.00;100866.06;6000558;23;20098;-72
2022/06/09 07:40:23;;;;;;;5.68;5.38;;;;;;;16.00;99.71;100867.34;6027011;23;20025;-68
2022/06/09 07:42:50;;;;;;;7.13;6.82;;;;;;;15.91;98.98;100873.28;5994047;23;20042;-72
2022/06/09 07:45:16;;;;;;;5.63;5.32;;;;;;;15.96;100.00;100876.47;6023836;23;20440;-73
2022/06/09 07:47:44;;;;;;;5.60;5.30;;;;;;;16.09;100.00;100877.25;5992483;23;20159;-67
2022/06/09 07:50:11;;;;;;;5.25;5.03;;;;;;;15.91;100.00;100858.25;6026598;23;20413;-68
2022/06/09 07:52:44;;;;;;;5.43;5.22;;;;;;;16.15;100.00;100875.97;5990179;23;20027;-67
2022/06/09 07:55:11;;;;;;;6.70;6.07;;;;;;;16.22;100.00;100853.38;6019417;23;20105;-69
2022/06/09 07:57:38;;;;;;;6.88;6.47;;;;;;;16.25;98.90;100863.75;5998878;23;20015;-69
2022/06/09 08:00:07;;;;;;;6.03;5.72;;;;;;;16.47;98.84;100886.00;6022402;23;20388;-69
2022/06/09 08:02:33;;;;;;;5.88;5.57;;;;;;;16.49;98.45;100879.63;6006733;23;20300;-70
2022/06/09 08:05:00;;;;;;;5.53;5.28;;;;;;;16.55;98.07;100884.47;6024220;23;20504;-73
2022/06/09 08:07:26;;;;;;;5.28;5.07;;;;;;;16.18;95.14;100859.00;6000246;23;20023;-72
2022/06/09 08:09:53;;;;;;;7.13;6.82;;;;;;;16.00;96.45;100877.94;6026998;23;20026;-73
2022/06/09 08:12:20;;;;;;;5.38;5.18;;;;;;;16.18;97.62;100910.19;5992799;23;20453;-71
2022/06/09 08:14:47;;;;;;;6.35;6.05;;;;;;;16.19;96.85;100888.03;6022087;23;20031;-70
2022/06/09 08:17:14;;;;;;;5.30;5.10;;;;;;;16.46;96.22;100905.53;6004102;23;20019;-72
2022/06/09 08:19:42;;;;;;;5.60;5.40;;;;;;;16.67;95.84;100917.16;6011256;23;20055;-72
2022/06/09 08:22:09;;;;;;;5.70;5.40;;;;;;;16.85;93.07;100887.63;5995141;23;20027;-75
2022/06/09 08:24:36;;;;;;;5.70;5.40;;;;;;;17.36;91.54;100913.78;6007720;23;20030;-73
2022/06/09 08:27:03;;;;;;;6.30;6.00;;;;;;;17.54;89.53;100888.47;6001302;23;20019;-71
2022/06/09 08:29:29;;;;;;;5.28;5.07;;;;;;;17.81;85.05;100884.56;6005544;23;20233;-69
2022/06/09 08:31:56;;;;;;;7.10;6.80;;;;;;;18.08;81.87;100926.72;6003638;23;20089;-69
2022/06/09 08:34:23;;;;;;;7.05;6.60;;;;;;;17.97;82.65;100931.19;6028153;23;20030;-69
2022/06/09 08:36:50;;;;;;;7.55;7.15;;;;;;;18.11;82.28;100909.69;6025001;23;20013;-69
2022/06/09 08:39:17;;;;;;;5.60;5.30;;;;;;;18.07;80.50;100942.75;6057903;23;20097;-69
2022/06/09 08:41:54;;;;;;;8.02;5.97;;;;;;;18.09;82.38;100940.84;6024877;23;20023;-68
2022/06/09 08:44:29;;;;;;;5.82;5.53;;;;;;;17.83;83.77;100943.75;6056406;23;20190;-68
2022/06/09 08:47:14;;;;;;;6.97;6.68;;;;;;;18.07;85.50;100942.75;6030517;23;20540;-74
2022/06/09 08:49:57;;;;;;;5.82;5.53;;;;;;;17.05;82.77;100786.19;6054089;23;20050;-69
2022/06/09 08:52:41;;;;;;;6.07;5.78;;;;;;;17.75;84.61;100940.81;6056454;23;20022;-73
2022/06/09 08:55:17;;;;;;;5.80;5.50;;;;;;;18.09;84.35;100908.97;6021108;23;20022;-74
2022/06/09 08:57:45;;;;;;;5.85;5.55;;;;;;;18.47;80.43;100955.50;6027467;23;20027;-74
2022/06/09 09:00:18;;;;;;;5.80;5.50;;;;;;;18.54;80.48;100948.69;6031719;23;20026;-74
2022/06/09 09:02:59;;;;;;;6.75;6.40;;;;;;;18.29;77.34;100952.50;6033765;23;20455;-71
2022/06/09 09:05:33;;;;;;;5.75;5.45;;;;;;;17.96;81.88;100956.91;6048862;23;20387;-73
2022/06/09 09:08:06;;;;;;;6.35;6.05;;;;;;;17.05;83.03;100804.75;6046632;23;20014;-69
2022/06/09 09:10:51;;;;;;;5.90;5.60;;;;;;;18.28;82.03;100953.47;6036216;23;20027;-69
2022/06/09 09:13:27;;;;;;;5.63;5.38;;;;;;;18.60;80.44;100961.50;6056985;23;20015;-69
2022/06/09 09:15:58;;;;;;;7.53;7.15;;;;;;;18.77;78.07;100967.25;6047715;23;20018;-69
2022/06/09 09:18:37;;;;;;;5.80;5.50;;;;;;;19.12;77.32;100941.25;6055448;23;20018;-69
2022/06/09 09:21:16;;;;;;;8.10;7.60;;;;;;;19.64;74.67;100967.03;6051890;23;20093;-72
2022/06/09 09:24:00;;;;;;;6.22;5.85;;;;;;;19.71;72.33;100965.56;6048343;23;20282;-75
2022/06/09 09:26:49;;;;;;;6.07;5.78;;;;;;;19.01;72.12;100933.31;6026242;23;20028;-69
2022/06/09 09:29:35;;;;;;;6.07;5.78;;;;;;;18.99;72.06;100961.84;6053961;23;20452;-69
2022/06/09 09:32:05;;;;;;;5.80;5.50;;;;;;;19.67;74.56;100969.44;6027158;23;20022;-70
2022/06/09 09:34:40;;;;;;;6.38;6.07;;;;;;;19.30;70.24;100970.78;6050791;23;20014;-74
2022/06/09 09:37:21;;;;;;;6.82;6.47;;;;;;;18.92;72.98;100968.66;6024918;23;20026;-72
2022/06/09 09:40:00;;;;;;;7.43;7.03;;;;;;;19.23;71.13;100977.56;6045394;23;20098;-73
2022/06/09 09:42:32;;;;;;;5.97;5.68;;;;;;;19.32;72.71;100966.16;6026178;23;20030;-72
2022/06/09 09:45:00;;;;;;;7.90;7.40;;;;;;;19.80;73.82;100986.06;6048609;23;20082;-73
2022/06/09 09:47:29;;;;;;;5.85;5.55;;;;;;;20.24;72.41;100977.81;6010404;23;20183;-73
2022/06/09 09:50:18;;;;;;;7.55;7.05;;;;;;;20.47;71.36;100970.44;6022637;23;20024;-73
2022/06/09 09:52:46;;;;;;;6.78;6.38;;;;;;;20.74;69.50;100961.78;6022436;23;20018;-73
2022/06/09 09:55:38;;;;;;;6.00;5.70;;;;;;;20.56;65.90;100987.41;6058603;23;20104;-72
2022/06/09 09:58:23;;;;;;;6.03;5.70;;;;;;;20.56;66.65;100985.59;6024869;23;20042;-75
2022/06/09 10:01:18;;;;;;;6.40;6.00;;;;;;;20.43;65.34;100959.19;6027516;23;20019;-71
2022/06/09 10:10:26;;;;;;;5.60;5.40;;;;;;;20.44;64.67;100987.53;6006273;23;20019;-74
2022/06/09 10:12:55;;;;;;;7.18;6.88;;;;;;;21.12;63.19;100997.44;6044981;23;20253;-72
2022/06/09 10:15:41;;;;;;;6.03;5.72;;;;;;;20.69;65.43;100998.72;6023789;23;20057;-68
2022/06/09 10:18:18;;;;;;;6.50;6.20;;;;;;;21.15;62.33;100999.84;6050263;23;20027;-69
2022/06/09 10:21:11;;;;;;;7.50;7.10;;;;;;;21.18;61.34;101006.72;6021943;23;20418;-69
2022/06/09 10:23:48;;;;;;;6.00;5.70;;;;;;;21.07;61.73;101008.56;6052584;23;20388;-69
2022/06/09 10:26:26;;;;;;;5.82;5.55;;;;;;;20.32;62.11;101005.47;6008555;23;20045;-69
2022/06/09 10:29:08;;;;;;;7.72;7.35;;;;;;;19.71;65.89;100989.53;6046551;23;20018;-70
2022/06/09 10:31:35;;;;;;;;;;;;;;;18.94;66.06;100881.59;6026281;23;20442;-71
2022/06/09 10:34:17;;;;;;;7.15;6.85;;;;;;;19.65;67.24;101001.50;6037165;23;19914;-72
2022/06/09 10:37:02;;;;;;;;;;;;;;;19.98;66.94;101018.25;6031461;23;20027;-73
2022/06/09 10:39:38;;;;;;;5.70;5.40;;;;;;;20.01;66.74;101022.47;6044195;23;20316;-69
2022/06/09 10:42:39;;;;;;;6.20;5.90;;;;;;;20.06;67.46;101021.06;6055648;23;20593;-71
2022/06/09 10:45:17;;;;;;;6.10;5.80;;;;;;;19.83;68.36;101031.06;6018100;23;20153;-74
2022/06/09 10:56:41;;;;;;;5.63;5.37;;;;;;;18.68;72.43;101044.13;6015618;23;20571;-72
2022/06/09 10:59:24;;;;;;;5.53;5.32;;;;;;;18.86;75.34;101056.91;6026688;23;20134;-72
2022/06/09 11:01:50;;;;;;;7.28;6.97;;;;;;;18.82;73.22;100996.97;6046052;23;20014;-73
2022/06/09 11:04:18;;;;;;;5.82;5.53;;;;;;;19.27;73.61;101047.34;6026108;23;20052;-71
2022/06/09 11:07:11;;;;;;;5.85;5.60;;;;;;;19.42;72.49;101051.38;6025275;23;20089;-72
2022/06/09 11:09:56;;;;;;;;;;;;;;;20.15;69.98;101047.94;6047762;23;20015;-72
2022/06/09 11:12:55;;;;;;;6.07;5.78;;;;;;;20.25;68.67;101020.31;6029471;23;19922;-68
2022/06/09 11:15:41;;;;;;;5.82;5.53;;;;;;;20.56;66.00;101017.59;6053714;23;20018;-68
2022/06/09 11:18:23;;;;;;;5.85;5.53;;;;;;;20.63;62.99;101071.28;6029615;23;20366;-68
2022/06/09 11:21:12;;;;;;;6.97;6.63;;;;;;;20.83;63.58;101067.66;6016394;23;20409;-67
2022/06/09 11:23:44;;;;;;;5.38;5.18;;;;;;;20.82;64.27;101076.63;6049960;23;20085;-68
2022/06/09 11:26:33;;;;;;;6.23;5.93;;;;;;;20.70;61.95;101080.41;6020071;23;20098;-73
2022/06/09 11:29:34;;;;;;;6.95;6.60;;;;;;;20.36;62.85;101051.34;6043945;23;20006;-73
2022/06/09 11:32:10;;;;;;;7.47;7.05;;;;;;;19.71;75.16;101093.38;5984361;23;20502;-68
2022/06/09 11:34:51;;;;;;;5.70;5.43;;;;;;;19.43;81.14;101092.16;6043667;23;20019;-68
2022/06/09 11:37:43;;;;;;;5.63;5.38;;;;;;;19.04;85.98;101082.03;5999478;23;20023;-68
2022/06/09 11:40:31;;;;;;;6.00;5.70;;;;;;;18.72;90.61;101071.28;5975183;23;20071;-69
2022/06/09 11:43:22;;;;;;;7.15;6.80;;;;;;;18.64;92.26;101093.19;5998242;23;20058;-70
2022/06/09 11:45:54;;;;;;;7.53;7.18;;;;;;;18.21;90.47;101098.41;6039146;23;20030;-68
2022/06/09 11:48:33;;;;;;;5.68;5.40;;;;;;;18.26;88.78;101089.09;6027615;23;20334;-72
2022/06/09 11:51:01;;;;;;;6.78;6.47;;;;;;;18.32;92.39;101043.44;5990669;23;20017;-71
2022/06/09 11:53:30;;;;;;;5.55;5.35;;;;;;;18.90;91.11;101088.47;6018975;23;20459;-72
2022/06/09 11:56:43;;;;;;;7.70;7.07;;;;;;;19.27;90.72;101103.22;5999497;23;20027;-68
2022/06/09 11:59:13;;;;;;;5.70;5.40;;;;;;;19.23;88.68;101105.28;5977094;23;20018;-68
2022/06/09 12:01:39;;;;;;;6.00;5.55;;;;;;;19.44;85.53;101100.00;6030455;23;20089;-73
2022/06/09 12:04:42;;;;;;;5.63;5.32;;;;;;;19.77;82.76;101103.50;5998986;23;20027;-73
2022/06/09 12:07:37;;;;;;;5.50;5.30;;;;;;;19.85;81.44;101098.38;6027341;23;20049;-68